createdAt,value
2017-05-14T00:00:47.533Z,23.48
2017-05-14T00:01:50.496Z,23.54
2017-05-14T00:02:52.867Z,23.55
2017-05-14T00:03:55.230Z,23.48
2017-05-14T00:04:57.625Z,23.48
2017-05-14T00:05:59.981Z,23.44
2017-05-14T00:07:02.906Z,23.43
2017-05-14T00:08:05.290Z,23.37
2017-05-14T00:09:07.662Z,23.32
2017-05-14T00:10:10.027Z,23.27
2017-05-14T00:11:12.414Z,23.36
2017-05-14T00:12:15.406Z,23.25
2017-05-14T00:13:17.795Z,23.25
2017-05-14T00:14:20.165Z,23.31
2017-05-14T00:15:22.532Z,23.27
2017-05-14T00:16:24.912Z,23.32
2017-05-14T00:17:27.820Z,23.20
2017-05-14T00:18:30.178Z,23.27
2017-05-14T00:19:32.539Z,23.25
2017-05-14T00:20:34.891Z,23.23
2017-05-14T00:21:37.278Z,23.21
2017-05-14T00:22:40.271Z,23.24
2017-05-14T00:23:42.633Z,23.20
2017-05-14T00:24:45.011Z,23.24
2017-05-14T00:25:47.388Z,23.21
2017-05-14T00:26:49.752Z,23.28
2017-05-14T00:27:52.734Z,23.25
2017-05-14T00:28:55.102Z,23.25
2017-05-14T00:29:57.457Z,23.21
2017-05-14T00:30:59.830Z,23.18
2017-05-14T00:32:02.188Z,23.10
2017-05-14T00:33:05.099Z,23.10
2017-05-14T00:34:07.474Z,23.08
2017-05-14T00:35:09.848Z,23.05
2017-05-14T00:36:12.246Z,23.10
2017-05-14T00:37:14.624Z,23.13
2017-05-14T00:38:17.612Z,22.98
2017-05-14T00:39:19.989Z,23.08
2017-05-14T00:40:22.387Z,22.99
2017-05-14T00:41:24.765Z,23.03
2017-05-14T00:42:27.161Z,23.15
2017-05-14T00:43:30.137Z,23.03
2017-05-14T00:44:32.724Z,23.15
2017-05-14T00:45:35.093Z,23.06
2017-05-14T00:46:37.455Z,23.12
2017-05-14T00:47:39.807Z,23.13
2017-05-14T00:48:42.767Z,23.08
2017-05-14T00:49:45.123Z,23.05
2017-05-14T00:50:47.491Z,22.99
2017-05-14T00:51:49.854Z,23.08
2017-05-14T00:52:52.214Z,22.98
2017-05-14T00:53:55.140Z,23.10
2017-05-14T00:54:57.498Z,22.99
2017-05-14T00:55:59.888Z,23.00
2017-05-14T00:57:02.246Z,22.99
2017-05-14T00:58:04.610Z,23.02
2017-05-14T00:59:07.800Z,22.96
2017-05-14T01:00:10.183Z,22.99
2017-05-14T01:01:12.555Z,23.02
2017-05-14T01:02:14.920Z,22.94
2017-05-14T01:03:17.301Z,23.03
2017-05-14T01:04:20.284Z,23.03
2017-05-14T01:05:22.645Z,22.94
2017-05-14T01:06:25.040Z,22.96
2017-05-14T01:07:27.396Z,22.96
2017-05-14T01:08:29.782Z,22.94
2017-05-14T01:09:32.693Z,23.03
2017-05-14T01:10:35.051Z,22.98
2017-05-14T01:11:37.427Z,23.00
2017-05-14T01:12:39.799Z,22.93
2017-05-14T01:13:42.183Z,22.94
2017-05-14T01:14:45.324Z,23.00
2017-05-14T01:15:47.690Z,23.00
2017-05-14T01:16:50.042Z,22.98
2017-05-14T01:17:52.408Z,22.91
2017-05-14T01:18:54.767Z,22.93
2017-05-14T01:19:57.723Z,22.99
2017-05-14T01:21:00.076Z,23.05
2017-05-14T01:22:02.439Z,22.98
2017-05-14T01:23:04.800Z,22.93
2017-05-14T01:24:07.184Z,23.03
2017-05-14T01:25:10.358Z,22.99
2017-05-14T01:26:12.728Z,22.87
2017-05-14T01:27:15.086Z,23.03
2017-05-14T01:28:17.440Z,23.02
2017-05-14T01:29:19.824Z,22.88
2017-05-14T01:30:22.788Z,22.91
2017-05-14T01:31:25.189Z,22.96
2017-05-14T01:32:27.554Z,22.91
2017-05-14T01:33:29.925Z,22.81
2017-05-14T01:34:32.499Z,22.85
2017-05-14T01:35:35.468Z,22.81
2017-05-14T01:36:37.861Z,22.81
2017-05-14T01:37:40.217Z,22.80
2017-05-14T01:38:42.589Z,22.76
2017-05-14T01:39:44.954Z,22.73
2017-05-14T01:40:47.928Z,22.80
2017-05-14T01:41:50.281Z,22.73
2017-05-14T01:42:52.633Z,22.83
2017-05-14T01:43:55.025Z,22.85
2017-05-14T01:44:57.396Z,22.94
2017-05-14T01:46:00.355Z,22.93
2017-05-14T01:47:02.743Z,22.96
2017-05-14T01:48:05.142Z,23.05
2017-05-14T01:49:07.479Z,22.94
2017-05-14T01:50:09.833Z,22.93
2017-05-14T01:51:12.794Z,22.96
2017-05-14T01:52:15.188Z,22.90
2017-05-14T01:53:17.550Z,22.81
2017-05-14T01:54:19.910Z,22.81
2017-05-14T01:55:22.281Z,22.87
2017-05-14T01:56:25.223Z,22.76
2017-05-14T01:57:27.572Z,22.76
2017-05-14T01:58:29.941Z,22.76
2017-05-14T01:59:32.326Z,22.75
2017-05-14T02:00:34.682Z,22.75
2017-05-14T02:01:37.652Z,22.78
2017-05-14T02:02:40.025Z,22.75
2017-05-14T02:03:42.383Z,22.75
2017-05-14T02:04:44.739Z,22.75
2017-05-14T02:05:47.106Z,22.83
2017-05-14T02:06:50.063Z,22.85
2017-05-14T02:07:52.447Z,22.80
2017-05-14T02:08:54.788Z,22.81
2017-05-14T02:09:57.150Z,22.80
2017-05-14T02:10:59.513Z,22.83
2017-05-14T02:12:03.623Z,22.80
2017-05-14T02:13:05.982Z,22.78
2017-05-14T02:14:08.362Z,22.75
2017-05-14T02:15:10.701Z,22.83
2017-05-14T02:16:13.060Z,22.81
2017-05-14T02:17:15.970Z,22.81
2017-05-14T02:18:18.320Z,22.80
2017-05-14T02:19:20.676Z,22.78
2017-05-14T02:20:23.043Z,22.84
2017-05-14T02:21:25.414Z,22.80
2017-05-14T02:22:28.485Z,22.81
2017-05-14T02:23:30.850Z,22.80
2017-05-14T02:24:33.212Z,22.81
2017-05-14T02:25:35.570Z,22.73
2017-05-14T02:26:37.928Z,22.75
2017-05-14T02:27:40.902Z,22.70
2017-05-14T02:28:43.259Z,22.70
2017-05-14T02:29:45.615Z,22.70
2017-05-14T02:30:47.983Z,22.76
2017-05-14T02:31:50.348Z,22.69
2017-05-14T02:32:53.298Z,22.78
2017-05-14T02:33:55.656Z,22.84
2017-05-14T02:34:58.024Z,22.78
2017-05-14T02:36:00.379Z,22.80
2017-05-14T02:37:02.761Z,22.69
2017-05-14T02:38:05.670Z,22.68
2017-05-14T02:39:08.034Z,22.62
2017-05-14T02:40:10.391Z,22.63
2017-05-14T02:41:12.766Z,22.70
2017-05-14T02:42:15.125Z,22.63
2017-05-14T02:43:20.089Z,22.66
2017-05-14T02:44:22.453Z,22.65
2017-05-14T02:45:24.815Z,22.69
2017-05-14T02:46:27.174Z,22.68
2017-05-14T02:47:29.536Z,22.63
2017-05-14T02:48:32.493Z,22.63
2017-05-14T02:49:34.862Z,22.72
2017-05-14T02:50:37.227Z,22.70
2017-05-14T02:51:39.581Z,22.62
2017-05-14T02:52:41.941Z,22.69
2017-05-14T02:53:44.912Z,22.66
2017-05-14T02:54:47.289Z,22.60
2017-05-14T02:55:49.652Z,22.63
2017-05-14T02:56:52.015Z,22.57
2017-05-14T02:57:54.381Z,22.57
2017-05-14T02:58:57.341Z,22.55
2017-05-14T02:59:59.703Z,22.57
2017-05-14T03:01:02.072Z,22.60
2017-05-14T03:02:04.427Z,22.59
2017-05-14T03:03:06.814Z,22.53
2017-05-14T03:04:09.771Z,22.54
2017-05-14T03:05:12.121Z,22.48
2017-05-14T03:06:14.500Z,22.45
2017-05-14T03:07:16.851Z,22.44
2017-05-14T03:08:19.216Z,22.50
2017-05-14T03:09:22.168Z,22.43
2017-05-14T03:10:24.518Z,22.51
2017-05-14T03:11:26.883Z,22.45
2017-05-14T03:12:29.240Z,22.48
2017-05-14T03:13:31.607Z,22.50
2017-05-14T03:14:34.572Z,22.47
2017-05-14T03:15:36.914Z,22.47
2017-05-14T03:16:39.274Z,22.41
2017-05-14T03:17:41.664Z,22.48
2017-05-14T03:18:44.027Z,22.45
2017-05-14T03:19:48.901Z,22.45
2017-05-14T03:20:51.255Z,22.43
2017-05-14T03:21:53.614Z,22.43
2017-05-14T03:22:55.975Z,22.47
2017-05-14T03:23:58.341Z,22.50
2017-05-14T03:25:01.297Z,22.44
2017-05-14T03:26:03.652Z,22.47
2017-05-14T03:27:06.016Z,22.44
2017-05-14T03:28:08.379Z,22.45
2017-05-14T03:29:10.731Z,22.43
2017-05-14T03:30:13.652Z,22.47
2017-05-14T03:31:16.016Z,22.45
2017-05-14T03:32:18.576Z,22.44
2017-05-14T03:33:20.933Z,22.41
2017-05-14T03:34:23.523Z,22.47
2017-05-14T03:35:26.485Z,22.48
2017-05-14T03:36:28.836Z,22.43
2017-05-14T03:37:31.200Z,22.48
2017-05-14T03:38:33.770Z,22.47
2017-05-14T03:39:36.132Z,22.43
2017-05-14T03:40:39.091Z,22.45
2017-05-14T03:41:41.451Z,22.44
2017-05-14T03:42:43.803Z,22.47
2017-05-14T03:43:46.157Z,22.48
2017-05-14T03:44:48.528Z,22.47
2017-05-14T03:45:51.518Z,22.48
2017-05-14T03:46:53.870Z,22.50
2017-05-14T03:47:56.225Z,22.51
2017-05-14T03:48:58.589Z,22.41
2017-05-14T03:50:00.944Z,22.41
2017-05-14T03:51:03.915Z,22.41
2017-05-14T03:52:06.285Z,22.53
2017-05-14T03:53:08.637Z,22.41
2017-05-14T03:54:10.991Z,22.44
2017-05-14T03:55:13.392Z,22.45
2017-05-14T03:56:16.319Z,22.45
2017-05-14T03:57:18.678Z,22.50
2017-05-14T03:58:21.064Z,22.43
2017-05-14T03:59:23.432Z,22.47
2017-05-14T04:00:25.800Z,22.47
2017-05-14T04:01:28.714Z,22.43
2017-05-14T04:02:31.071Z,22.47
2017-05-14T04:03:33.448Z,22.41
2017-05-14T04:04:35.801Z,22.48
2017-05-14T04:05:38.162Z,22.45
2017-05-14T04:06:41.068Z,22.47
2017-05-14T04:07:43.434Z,22.50
2017-05-14T04:08:45.799Z,22.44
2017-05-14T04:09:48.149Z,22.44
2017-05-14T04:10:50.506Z,22.43
2017-05-14T04:11:53.468Z,22.50
2017-05-14T04:12:55.840Z,22.43
2017-05-14T04:13:58.210Z,22.44
2017-05-14T04:15:00.571Z,22.45
2017-05-14T04:16:02.919Z,22.47
2017-05-14T04:17:05.882Z,22.41
2017-05-14T04:18:08.232Z,22.38
2017-05-14T04:19:10.613Z,22.35
2017-05-14T04:20:12.954Z,22.41
2017-05-14T04:21:15.327Z,22.39
2017-05-14T04:22:18.286Z,22.35
2017-05-14T04:23:20.646Z,22.38
2017-05-14T04:24:22.999Z,22.38
2017-05-14T04:25:25.365Z,22.39
2017-05-14T04:26:27.732Z,22.39
2017-05-14T04:27:30.687Z,22.36
2017-05-14T04:28:33.046Z,22.32
2017-05-14T04:29:35.404Z,22.25
2017-05-14T04:30:37.762Z,22.36
2017-05-14T04:31:40.113Z,22.36
2017-05-14T04:32:43.023Z,22.32
2017-05-14T04:33:45.382Z,22.23
2017-05-14T04:34:47.751Z,22.23
2017-05-14T04:35:50.105Z,22.20
2017-05-14T04:36:52.476Z,22.20
2017-05-14T04:37:55.385Z,22.15
2017-05-14T04:38:57.742Z,22.17
2017-05-14T04:40:00.101Z,22.14
2017-05-14T04:41:02.468Z,22.15
2017-05-14T04:42:04.824Z,22.13
2017-05-14T04:43:07.727Z,22.17
2017-05-14T04:44:10.086Z,22.11
2017-05-14T04:45:12.451Z,22.14
2017-05-14T04:46:14.812Z,22.23
2017-05-14T04:47:17.172Z,22.14
2017-05-14T04:48:20.131Z,22.14
2017-05-14T04:49:22.500Z,22.18
2017-05-14T04:50:24.862Z,22.25
2017-05-14T04:51:27.217Z,22.23
2017-05-14T04:52:29.575Z,22.29
2017-05-14T04:53:32.530Z,22.30
2017-05-14T04:54:34.914Z,22.30
2017-05-14T04:55:37.269Z,22.26
2017-05-14T04:56:39.625Z,22.29
2017-05-14T04:57:41.989Z,22.30
2017-05-14T04:58:44.904Z,22.28
2017-05-14T04:59:47.259Z,22.23
2017-05-14T05:00:49.627Z,22.10
2017-05-14T05:01:51.989Z,22.14
2017-05-14T05:02:54.337Z,22.10
2017-05-14T05:03:57.257Z,22.08
2017-05-14T05:04:59.606Z,22.13
2017-05-14T05:06:01.969Z,22.06
2017-05-14T05:07:04.337Z,22.07
2017-05-14T05:08:06.683Z,22.11
2017-05-14T05:09:09.649Z,22.06
2017-05-14T05:10:12.011Z,22.07
2017-05-14T05:11:14.385Z,22.02
2017-05-14T05:12:16.747Z,22.11
2017-05-14T05:13:19.131Z,22.06
2017-05-14T05:14:22.037Z,22.06
2017-05-14T05:15:24.394Z,22.04
2017-05-14T05:16:26.753Z,22.07
2017-05-14T05:17:29.113Z,22.11
2017-05-14T05:18:31.480Z,22.10
2017-05-14T05:19:34.394Z,22.10
2017-05-14T05:20:36.747Z,22.13
2017-05-14T05:21:39.108Z,22.08
2017-05-14T05:22:41.479Z,22.14
2017-05-14T05:23:43.840Z,22.15
2017-05-14T05:24:46.809Z,22.15
2017-05-14T05:25:49.199Z,22.17
2017-05-14T05:26:51.550Z,22.20
2017-05-14T05:27:53.915Z,22.17
2017-05-14T05:28:56.275Z,22.22
2017-05-14T05:29:59.240Z,22.20
2017-05-14T05:31:01.606Z,22.23
2017-05-14T05:32:03.956Z,22.23
2017-05-14T05:33:06.314Z,22.25
2017-05-14T05:34:08.698Z,22.26
2017-05-14T05:35:11.665Z,22.28
2017-05-14T05:36:14.011Z,22.32
2017-05-14T05:37:16.369Z,22.30
2017-05-14T05:38:18.729Z,22.26
2017-05-14T05:39:21.090Z,22.23
2017-05-14T05:40:23.992Z,22.17
2017-05-14T05:41:26.350Z,22.23
2017-05-14T05:42:28.706Z,22.14
2017-05-14T05:43:31.082Z,22.15
2017-05-14T05:44:33.429Z,22.22
2017-05-14T05:45:36.344Z,22.20
2017-05-14T05:46:38.705Z,22.14
2017-05-14T05:47:41.067Z,22.13
2017-05-14T05:48:43.424Z,22.14
2017-05-14T05:49:45.793Z,22.13
2017-05-14T05:50:48.699Z,22.10
2017-05-14T05:51:51.050Z,22.10
2017-05-14T05:52:53.409Z,22.07
2017-05-14T05:53:55.762Z,22.06
2017-05-14T05:54:58.123Z,21.99
2017-05-14T05:56:01.030Z,22.02
2017-05-14T05:57:46.597Z,21.99
2017-05-14T05:58:48.946Z,22.00
2017-05-14T05:59:51.305Z,21.89
2017-05-14T06:00:53.657Z,21.83
2017-05-14T06:01:56.565Z,21.82
2017-05-14T06:02:58.927Z,21.85
2017-05-14T06:04:01.286Z,21.96
2017-05-14T06:05:03.638Z,21.87
2017-05-14T06:06:05.996Z,21.82
2017-05-14T06:07:08.959Z,21.83
2017-05-14T06:08:11.325Z,21.87
2017-05-14T06:09:13.668Z,21.72
2017-05-14T06:10:16.020Z,21.76
2017-05-14T06:11:18.398Z,21.85
2017-05-14T06:12:21.309Z,21.77
2017-05-14T06:13:23.667Z,21.82
2017-05-14T06:14:26.030Z,21.76
2017-05-14T06:15:28.383Z,21.69
2017-05-14T06:16:30.746Z,21.67
2017-05-14T06:17:33.700Z,21.77
2017-05-14T06:18:36.069Z,21.75
2017-05-14T06:19:38.421Z,21.79
2017-05-14T06:20:40.774Z,21.76
2017-05-14T06:21:43.132Z,21.76
2017-05-14T06:22:46.041Z,21.70
2017-05-14T06:23:48.407Z,21.66
2017-05-14T06:24:50.763Z,21.69
2017-05-14T06:25:53.124Z,21.69
2017-05-14T06:26:55.490Z,21.69
2017-05-14T06:27:58.389Z,21.69
2017-05-14T06:29:00.744Z,21.69
2017-05-14T06:30:03.100Z,21.69
2017-05-14T06:31:05.462Z,21.72
2017-05-14T06:32:07.826Z,21.72
2017-05-14T06:33:10.726Z,21.72
2017-05-14T06:34:13.084Z,21.66
2017-05-14T06:35:15.458Z,21.73
2017-05-14T06:36:17.811Z,21.77
2017-05-14T06:37:20.166Z,21.75
2017-05-14T06:38:23.119Z,21.72
2017-05-14T06:39:25.481Z,21.73
2017-05-14T06:40:27.838Z,21.72
2017-05-14T06:41:30.192Z,21.67
2017-05-14T06:42:32.553Z,21.66
2017-05-14T06:43:35.457Z,21.73
2017-05-14T06:44:37.808Z,21.72
2017-05-14T06:45:40.167Z,21.80
2017-05-14T06:46:42.521Z,21.80
2017-05-14T06:47:44.876Z,21.80
2017-05-14T06:48:47.838Z,21.89
2017-05-14T06:49:50.198Z,21.79
2017-05-14T06:50:52.547Z,21.79
2017-05-14T06:51:54.902Z,21.76
2017-05-14T06:52:57.260Z,21.72
2017-05-14T06:54:00.170Z,21.79
2017-05-14T06:55:02.527Z,21.85
2017-05-14T06:56:04.886Z,21.85
2017-05-14T06:57:07.247Z,21.82
2017-05-14T06:58:09.600Z,21.80
2017-05-14T06:59:12.557Z,21.72
2017-05-14T07:00:14.914Z,21.80
2017-05-14T07:01:17.277Z,21.83
2017-05-14T07:02:19.634Z,21.76
2017-05-14T07:03:21.995Z,21.73
2017-05-14T07:04:25.204Z,21.70
2017-05-14T07:05:27.569Z,21.64
2017-05-14T07:06:29.917Z,21.62
2017-05-14T07:07:32.272Z,21.55
2017-05-14T07:08:34.632Z,21.57
2017-05-14T07:09:37.585Z,21.58
2017-05-14T07:10:39.962Z,21.48
2017-05-14T07:11:42.319Z,21.51
2017-05-14T07:12:44.678Z,21.51
2017-05-14T07:13:47.033Z,21.51
2017-05-14T07:14:49.998Z,21.48
2017-05-14T07:15:52.347Z,21.45
2017-05-14T07:16:54.703Z,21.40
2017-05-14T07:17:57.064Z,21.42
2017-05-14T07:18:59.423Z,21.36
2017-05-14T07:20:02.331Z,21.33
2017-05-14T07:21:04.686Z,21.27
2017-05-14T07:22:07.042Z,21.37
2017-05-14T07:23:09.403Z,21.35
2017-05-14T07:24:11.765Z,21.36
2017-05-14T07:25:14.723Z,21.32
2017-05-14T07:26:17.076Z,21.29
2017-05-14T07:27:19.437Z,21.27
2017-05-14T07:28:21.833Z,21.24
2017-05-14T07:29:24.173Z,21.29
2017-05-14T07:30:27.110Z,21.25
2017-05-14T07:31:29.461Z,21.22
2017-05-14T07:32:31.820Z,21.24
2017-05-14T07:33:34.188Z,21.21
2017-05-14T07:34:36.541Z,21.24
2017-05-14T07:35:39.503Z,21.20
2017-05-14T07:36:41.848Z,21.20
2017-05-14T07:37:44.198Z,21.22
2017-05-14T07:38:46.566Z,21.17
2017-05-14T07:39:48.921Z,21.24
2017-05-14T07:40:51.880Z,21.14
2017-05-14T07:41:54.249Z,21.12
2017-05-14T07:42:56.603Z,21.11
2017-05-14T07:43:58.964Z,21.18
2017-05-14T07:45:01.320Z,21.05
2017-05-14T07:46:04.278Z,21.12
2017-05-14T07:47:06.638Z,21.15
2017-05-14T07:48:09.006Z,21.06
2017-05-14T07:49:11.348Z,21.11
2017-05-14T07:50:13.716Z,21.06
2017-05-14T07:51:16.667Z,21.15
2017-05-14T07:52:19.026Z,20.99
2017-05-14T07:53:21.385Z,21.11
2017-05-14T07:54:23.738Z,21.02
2017-05-14T07:55:26.099Z,21.15
2017-05-14T07:56:29.058Z,21.09
2017-05-14T07:57:31.424Z,21.09
2017-05-14T07:58:33.776Z,21.11
2017-05-14T07:59:36.134Z,21.21
2017-05-14T08:00:38.489Z,21.20
2017-05-14T08:01:41.446Z,21.21
2017-05-14T08:02:43.799Z,21.15
2017-05-14T08:03:46.167Z,21.22
2017-05-14T08:04:48.530Z,21.17
2017-05-14T08:05:50.876Z,21.21
2017-05-14T08:06:53.831Z,21.22
2017-05-14T08:07:56.183Z,21.25
2017-05-14T08:08:58.543Z,21.32
2017-05-14T08:10:00.904Z,21.27
2017-05-14T08:11:03.259Z,21.21
2017-05-14T08:12:06.160Z,21.30
2017-05-14T08:13:08.513Z,21.33
2017-05-14T08:14:10.872Z,21.30
2017-05-14T08:15:13.234Z,21.37
2017-05-14T08:16:15.588Z,21.39
2017-05-14T08:17:18.495Z,21.39
2017-05-14T08:18:20.856Z,21.37
2017-05-14T08:19:23.221Z,21.40
2017-05-14T08:20:25.562Z,21.45
2017-05-14T08:21:27.920Z,21.48
2017-05-14T08:22:30.883Z,21.50
2017-05-14T08:23:33.238Z,21.51
2017-05-14T08:24:35.591Z,21.50
2017-05-14T08:25:37.952Z,21.48
2017-05-14T08:26:40.305Z,21.51
2017-05-14T08:27:43.260Z,21.50
2017-05-14T08:28:45.623Z,21.48
2017-05-14T08:29:47.982Z,21.39
2017-05-14T08:30:50.339Z,21.40
2017-05-14T08:31:52.693Z,21.37
2017-05-14T08:32:55.603Z,21.42
2017-05-14T08:33:57.960Z,21.32
2017-05-14T08:35:00.310Z,21.42
2017-05-14T08:36:02.670Z,21.35
2017-05-14T08:37:05.031Z,21.32
2017-05-14T08:38:07.990Z,21.30
2017-05-14T08:39:10.342Z,21.32
2017-05-14T08:40:12.703Z,21.29
2017-05-14T08:41:15.058Z,21.20
2017-05-14T08:42:17.421Z,21.24
2017-05-14T08:43:20.326Z,21.21
2017-05-14T08:44:22.691Z,21.15
2017-05-14T08:45:25.048Z,21.18
2017-05-14T08:46:27.407Z,21.21
2017-05-14T08:47:29.757Z,21.20
2017-05-14T08:48:32.667Z,21.21
2017-05-14T08:49:35.015Z,21.25
2017-05-14T08:50:37.368Z,21.17
2017-05-14T08:51:39.723Z,21.25
2017-05-14T08:52:42.079Z,21.21
2017-05-14T08:53:44.989Z,21.20
2017-05-14T08:54:47.358Z,21.21
2017-05-14T08:55:49.714Z,21.25
2017-05-14T08:56:52.067Z,21.21
2017-05-14T08:57:54.429Z,21.27
2017-05-14T08:58:57.347Z,21.27
2017-05-14T08:59:59.696Z,21.29
2017-05-14T09:01:02.072Z,21.27
2017-05-14T09:02:04.426Z,21.25
2017-05-14T09:03:06.775Z,21.32
2017-05-14T09:04:09.686Z,21.25
2017-05-14T09:05:12.045Z,21.27
2017-05-14T09:06:14.404Z,21.25
2017-05-14T09:07:16.755Z,21.32
2017-05-14T09:08:19.111Z,21.32
2017-05-14T09:09:22.084Z,21.22
2017-05-14T09:10:24.421Z,21.30
2017-05-14T09:11:26.775Z,21.21
2017-05-14T09:12:29.136Z,21.22
2017-05-14T09:13:31.494Z,21.24
2017-05-14T09:14:34.447Z,21.20
2017-05-14T09:15:36.804Z,21.22
2017-05-14T09:16:39.153Z,21.24
2017-05-14T09:17:41.507Z,21.18
2017-05-14T09:18:43.860Z,21.27
2017-05-14T09:19:46.774Z,21.27
2017-05-14T09:20:49.125Z,21.32
2017-05-14T09:21:51.487Z,21.29
2017-05-14T09:22:53.836Z,21.25
2017-05-14T09:23:56.203Z,21.27
2017-05-14T09:24:59.164Z,21.35
2017-05-14T09:26:01.512Z,21.32
2017-05-14T09:27:03.874Z,21.33
2017-05-14T09:28:06.221Z,21.40
2017-05-14T09:29:08.580Z,21.39
2017-05-14T09:30:11.534Z,21.46
2017-05-14T09:31:13.889Z,21.48
2017-05-14T09:32:16.247Z,21.48
2017-05-14T09:33:18.606Z,21.46
2017-05-14T09:34:20.957Z,21.46
2017-05-14T09:35:23.909Z,21.54
2017-05-14T09:36:26.272Z,21.55
2017-05-14T09:37:28.627Z,21.51
2017-05-14T09:38:30.989Z,21.51
2017-05-14T09:39:33.349Z,21.52
2017-05-14T09:40:36.260Z,21.55
2017-05-14T09:41:38.615Z,21.48
2017-05-14T09:42:40.983Z,21.51
2017-05-14T09:43:43.330Z,21.57
2017-05-14T09:44:45.689Z,21.54
2017-05-14T09:45:48.596Z,21.48
2017-05-14T09:46:50.949Z,21.50
2017-05-14T09:47:53.303Z,21.52
2017-05-14T09:48:55.663Z,21.52
2017-05-14T09:49:58.027Z,21.55
2017-05-14T09:51:00.927Z,21.55
2017-05-14T09:52:03.287Z,21.52
2017-05-14T09:53:05.647Z,21.58
2017-05-14T09:54:07.998Z,21.52
2017-05-14T09:55:10.356Z,21.55
2017-05-14T09:56:13.266Z,21.57
2017-05-14T09:57:15.624Z,21.60
2017-05-14T09:58:17.979Z,21.58
2017-05-14T09:59:20.332Z,21.57
2017-05-14T10:00:22.688Z,21.58
2017-05-14T10:01:25.643Z,21.66
2017-05-14T10:02:28.005Z,21.61
2017-05-14T10:03:30.352Z,21.67
2017-05-14T10:04:32.717Z,21.70
2017-05-14T10:05:35.074Z,21.72
2017-05-14T10:06:37.990Z,21.67
2017-05-14T10:07:40.341Z,21.62
2017-05-14T10:08:42.700Z,21.57
2017-05-14T10:09:45.047Z,21.69
2017-05-14T10:10:47.400Z,21.66
2017-05-14T10:11:50.360Z,21.66
2017-05-14T10:12:52.711Z,21.67
2017-05-14T10:13:55.062Z,21.70
2017-05-14T10:14:57.424Z,21.67
2017-05-14T10:15:59.782Z,21.64
2017-05-14T10:17:02.736Z,21.66
2017-05-14T10:18:05.089Z,21.67
2017-05-14T10:19:07.452Z,21.61
2017-05-14T10:20:09.801Z,21.72
2017-05-14T10:21:12.165Z,21.73
2017-05-14T10:22:15.124Z,21.72
2017-05-14T10:23:17.478Z,21.62
2017-05-14T10:24:19.838Z,21.77
2017-05-14T10:25:22.192Z,21.73
2017-05-14T10:26:24.548Z,21.76
2017-05-14T10:27:27.453Z,21.69
2017-05-14T10:28:29.813Z,21.76
2017-05-14T10:29:32.165Z,21.73
2017-05-14T10:30:34.524Z,21.75
2017-05-14T10:31:36.881Z,21.72
2017-05-14T10:32:39.838Z,21.76
2017-05-14T10:33:42.192Z,21.80
2017-05-14T10:34:44.550Z,21.83
2017-05-14T10:35:46.906Z,21.82
2017-05-14T10:36:49.262Z,21.80
2017-05-14T10:37:52.170Z,21.76
2017-05-14T10:38:54.528Z,21.82
2017-05-14T10:39:56.882Z,21.76
2017-05-14T10:40:59.244Z,21.82
2017-05-14T10:42:01.603Z,21.79
2017-05-14T10:43:04.555Z,21.79
2017-05-14T10:44:06.911Z,21.70
2017-05-14T10:45:09.265Z,21.72
2017-05-14T10:46:11.628Z,21.79
2017-05-14T10:47:13.985Z,21.80
2017-05-14T10:48:16.886Z,21.77
2017-05-14T10:49:19.245Z,21.77
2017-05-14T10:50:21.605Z,21.77
2017-05-14T10:51:23.958Z,21.76
2017-05-14T10:52:26.315Z,21.82
2017-05-14T10:53:29.272Z,21.89
2017-05-14T10:54:31.632Z,21.89
2017-05-14T10:55:33.994Z,21.87
2017-05-14T10:56:36.345Z,21.96
2017-05-14T10:57:38.694Z,21.92
2017-05-14T10:58:41.656Z,21.92
2017-05-14T10:59:44.017Z,21.85
2017-05-14T11:00:46.374Z,21.91
2017-05-14T11:01:48.730Z,21.93
2017-05-14T11:02:51.087Z,21.82
2017-05-14T11:03:53.985Z,21.83
2017-05-14T11:04:56.343Z,21.91
2017-05-14T11:05:58.704Z,21.98
2017-05-14T11:07:01.069Z,21.85
2017-05-14T11:08:03.413Z,21.91
2017-05-14T11:09:06.327Z,21.82
2017-05-14T11:10:08.674Z,21.83
2017-05-14T11:11:11.031Z,21.85
2017-05-14T11:12:13.391Z,21.91
2017-05-14T11:13:15.746Z,21.82
2017-05-14T11:14:18.705Z,21.87
2017-05-14T11:15:21.063Z,21.76
2017-05-14T11:16:23.421Z,21.80
2017-05-14T11:17:25.777Z,21.76
2017-05-14T11:18:28.137Z,21.77
2017-05-14T11:19:31.101Z,21.89
2017-05-14T11:20:33.656Z,21.79
2017-05-14T11:21:36.010Z,21.87
2017-05-14T11:22:38.374Z,21.83
2017-05-14T11:23:40.719Z,21.76
2017-05-14T11:24:43.678Z,21.80
2017-05-14T11:25:46.035Z,21.89
2017-05-14T11:26:48.390Z,21.92
2017-05-14T11:27:50.753Z,21.89
2017-05-14T11:28:53.109Z,21.91
2017-05-14T11:29:56.062Z,21.85
2017-05-14T11:30:58.421Z,21.85
2017-05-14T11:32:00.772Z,21.75
2017-05-14T11:33:03.133Z,21.79
2017-05-14T11:34:05.491Z,21.85
2017-05-14T11:35:08.447Z,21.76
2017-05-14T11:36:10.801Z,21.76
2017-05-14T11:37:13.159Z,21.80
2017-05-14T11:38:15.520Z,21.87
2017-05-14T11:39:17.881Z,21.89
2017-05-14T11:40:20.852Z,21.89
2017-05-14T11:41:23.209Z,21.91
2017-05-14T11:42:25.557Z,21.89
2017-05-14T11:43:27.909Z,21.80
2017-05-14T11:44:30.274Z,21.87
2017-05-14T11:45:33.227Z,21.87
2017-05-14T11:46:35.639Z,21.83
2017-05-14T11:47:37.963Z,21.77
2017-05-14T11:48:40.319Z,21.89
2017-05-14T11:49:42.671Z,21.80
2017-05-14T11:50:45.644Z,21.80
2017-05-14T11:51:47.998Z,21.83
2017-05-14T11:52:50.352Z,21.79
2017-05-14T11:53:52.719Z,21.75
2017-05-14T11:54:55.081Z,21.95
2017-05-14T11:55:57.995Z,21.89
2017-05-14T11:57:00.349Z,21.80
2017-05-14T11:58:02.718Z,21.80
2017-05-14T11:59:05.074Z,21.91
2017-05-14T12:00:07.436Z,21.91
2017-05-14T12:01:10.407Z,21.87
2017-05-14T12:02:12.764Z,21.85
2017-05-14T12:03:15.117Z,21.91
2017-05-14T12:04:17.477Z,21.92
2017-05-14T12:05:19.847Z,21.83
2017-05-14T12:06:22.802Z,21.92
2017-05-14T12:07:25.163Z,21.85
2017-05-14T12:08:27.534Z,21.91
2017-05-14T12:09:29.893Z,21.93
2017-05-14T12:10:32.252Z,21.91
2017-05-14T12:11:35.166Z,21.89
2017-05-14T12:12:37.528Z,21.93
2017-05-14T12:13:39.888Z,21.92
2017-05-14T12:14:42.262Z,22.00
2017-05-14T12:15:44.616Z,21.96
2017-05-14T12:16:47.534Z,22.00
2017-05-14T12:17:49.888Z,22.00
2017-05-14T12:18:52.245Z,22.13
2017-05-14T12:19:54.606Z,22.07
2017-05-14T12:20:56.974Z,22.14
2017-05-14T12:21:59.934Z,22.11
2017-05-14T12:23:02.293Z,22.13
2017-05-14T12:24:04.656Z,22.20
2017-05-14T12:25:07.021Z,22.10
2017-05-14T12:26:09.381Z,22.25
2017-05-14T12:27:12.346Z,22.14
2017-05-14T12:28:14.710Z,22.32
2017-05-14T12:29:17.067Z,22.30
2017-05-14T12:30:19.438Z,22.28
2017-05-14T12:31:21.801Z,22.30
2017-05-14T12:32:24.710Z,22.32
2017-05-14T12:33:27.071Z,22.32
2017-05-14T12:34:29.439Z,22.35
2017-05-14T12:35:31.799Z,22.33
2017-05-14T12:36:34.161Z,22.38
2017-05-14T12:37:37.123Z,22.44
2017-05-14T12:38:39.482Z,22.45
2017-05-14T12:39:41.852Z,22.44
2017-05-14T12:40:44.216Z,22.39
2017-05-14T12:41:46.572Z,22.48
2017-05-14T12:42:49.540Z,22.53
2017-05-14T12:43:51.902Z,22.55
2017-05-14T12:44:54.265Z,22.62
2017-05-14T12:45:56.628Z,22.63
2017-05-14T12:46:58.988Z,22.65
2017-05-14T12:48:01.901Z,22.72
2017-05-14T12:49:04.263Z,22.78
2017-05-14T12:50:06.626Z,22.80
2017-05-14T12:51:08.989Z,22.80
2017-05-14T12:52:11.356Z,22.91
2017-05-14T12:53:14.331Z,22.96
2017-05-14T12:54:16.689Z,22.99
2017-05-14T12:55:19.049Z,22.93
2017-05-14T12:56:21.405Z,22.93
2017-05-14T12:57:23.775Z,22.99
2017-05-14T12:58:26.694Z,22.94
2017-05-14T12:59:29.061Z,22.96
2017-05-14T13:00:31.425Z,23.08
2017-05-14T13:01:33.791Z,23.08
2017-05-14T13:02:36.156Z,23.08
2017-05-14T13:03:39.121Z,23.17
2017-05-14T13:04:41.485Z,23.15
2017-05-14T13:05:43.849Z,23.21
2017-05-14T13:06:46.209Z,23.21
2017-05-14T13:07:48.574Z,23.24
2017-05-14T13:08:51.489Z,23.23
2017-05-14T13:09:53.857Z,23.24
2017-05-14T13:10:56.224Z,23.34
2017-05-14T13:11:58.591Z,23.39
2017-05-14T13:13:00.961Z,23.34
2017-05-14T13:14:03.936Z,23.41
2017-05-14T13:15:06.300Z,23.40
2017-05-14T13:16:08.666Z,23.43
2017-05-14T13:17:11.032Z,23.46
2017-05-14T13:18:13.391Z,23.65
2017-05-14T13:19:16.370Z,23.50
2017-05-14T13:20:18.729Z,23.51
2017-05-14T13:21:21.096Z,23.59
2017-05-14T13:22:23.462Z,23.59
2017-05-14T13:23:25.825Z,23.63
2017-05-14T13:24:28.743Z,23.66
2017-05-14T13:25:31.116Z,23.73